createdAt,value
2019-03-02T00:02:24.127Z,101103.77
2019-03-02T00:04:52.157Z,101096.80
2019-03-02T00:07:20.439Z,101096.80
2019-03-02T00:09:48.975Z,101104.98
2019-03-02T00:12:17.318Z,101099.73
2019-03-02T00:14:45.584Z,101094.24
2019-03-02T00:17:15.527Z,101097.69
2019-03-02T00:19:43.883Z,101101.53
2019-03-02T00:22:12.176Z,101099.02
2019-03-02T00:24:42.205Z,101095.36
2019-03-02T00:27:10.628Z,101098.30
2019-03-02T00:29:38.930Z,101104.60
2019-03-02T00:32:09.539Z,101108.28
2019-03-02T00:34:37.190Z,101101.40
2019-03-02T00:37:05.501Z,101094.84
2019-03-02T00:39:33.785Z,101100.31
2019-03-02T00:42:02.077Z,101096.16
2019-03-02T00:44:30.393Z,101094.11
2019-03-02T00:46:59.678Z,101095.88
2019-03-02T00:49:28.731Z,101090.13
2019-03-02T00:51:56.989Z,101093.56
2019-03-02T00:54:25.309Z,101089.51
2019-03-02T00:56:53.574Z,101092.34
2019-03-02T00:59:21.935Z,101082.80
2019-03-02T01:01:50.212Z,101083.23
2019-03-02T01:04:18.477Z,101083.61
2019-03-02T01:06:48.895Z,101080.85
2019-03-02T01:09:16.776Z,101078.50
2019-03-02T01:11:45.063Z,101076.70
2019-03-02T01:14:13.360Z,101074.72
2019-03-02T01:16:41.713Z,101072.20
2019-03-02T01:19:10.003Z,101075.71
2019-03-02T01:21:41.401Z,101073.87
2019-03-02T01:24:08.277Z,101071.25
2019-03-02T01:26:36.543Z,101071.69
2019-03-02T01:29:04.827Z,101075.16
2019-03-02T01:31:33.121Z,101065.52
2019-03-02T01:34:04.709Z,101060.83
2019-03-02T01:36:32.267Z,101067.02
2019-03-02T01:39:01.401Z,101066.10
2019-03-02T01:41:29.686Z,101067.06
2019-03-02T01:43:57.955Z,101064.73
2019-03-02T01:46:26.240Z,101061.33
2019-03-02T01:48:54.519Z,101064.84
2019-03-02T01:51:23.230Z,101064.16
2019-03-02T01:53:52.147Z,101062.36
2019-03-02T01:56:20.468Z,101059.26
2019-03-02T01:58:48.742Z,101057.63
2019-03-02T02:01:17.024Z,101061.63
2019-03-02T02:03:47.040Z,101057.63
2019-03-02T02:06:15.737Z,101057.52
2019-03-02T02:08:44.029Z,101053.60
2019-03-02T02:11:14.581Z,101048.97
2019-03-02T02:13:43.974Z,101044.55
2019-03-02T02:16:12.310Z,101046.38
2019-03-02T02:18:40.610Z,101046.72
2019-03-02T02:21:08.878Z,101046.31
2019-03-02T02:23:38.817Z,101047.74
2019-03-02T02:26:07.745Z,101042.66
2019-03-02T02:28:37.128Z,101040.78
2019-03-02T02:31:06.096Z,101038.39
2019-03-02T02:33:42.626Z,101039.72
2019-03-02T02:36:05.594Z,101035.05
2019-03-02T02:38:33.876Z,101035.48
2019-03-02T02:41:02.152Z,101031.23
2019-03-02T02:43:30.414Z,101031.52
2019-03-02T02:45:58.674Z,101031.52
2019-03-02T02:48:31.112Z,101029.59
2019-03-02T02:50:57.141Z,101034.36
2019-03-02T02:53:25.407Z,101032.65
2019-03-02T02:55:53.670Z,101029.22
2019-03-02T02:58:21.979Z,101035.58
2019-03-02T03:00:55.322Z,101025.64
2019-03-02T03:03:21.167Z,101029.19
2019-03-02T03:05:54.265Z,101024.36
2019-03-02T03:08:20.263Z,101019.15
2019-03-02T03:10:48.557Z,101009.22
2019-03-02T03:13:16.843Z,101013.09
2019-03-02T03:15:46.737Z,101014.36
2019-03-02T03:18:15.370Z,101009.95
2019-03-02T03:20:48.880Z,101003.31
2019-03-02T03:23:13.679Z,101000.42
2019-03-02T03:25:41.952Z,101004.17
2019-03-02T03:28:10.229Z,101003.76
2019-03-02T03:30:39.892Z,101007.86
2019-03-02T03:33:08.483Z,101009.28
2019-03-02T03:35:36.760Z,101004.11
2019-03-02T03:38:05.023Z,101008.65
2019-03-02T03:40:33.314Z,101009.19
2019-03-02T03:43:03.347Z,101009.59
2019-03-02T03:45:31.606Z,101001.96
2019-03-02T03:47:59.900Z,101004.58
2019-03-02T03:50:28.225Z,101004.17
2019-03-02T03:52:56.471Z,101001.96
2019-03-02T03:55:27.333Z,100992.00
2019-03-02T03:58:00.353Z,100992.50
2019-03-02T04:00:24.753Z,100990.29
2019-03-02T04:02:53.040Z,100981.50
2019-03-02T04:05:21.319Z,100978.44
2019-03-02T04:07:51.442Z,100981.56
2019-03-02T04:10:25.779Z,100986.32
2019-03-02T04:12:49.696Z,100978.94
2019-03-02T04:15:17.979Z,100985.50
2019-03-02T04:17:46.260Z,100984.59
2019-03-02T04:20:29.458Z,100978.06
2019-03-02T04:22:59.926Z,100983.67
2019-03-02T04:25:28.195Z,100983.27
2019-03-02T04:27:56.506Z,100978.98
2019-03-02T04:30:30.722Z,100984.02
2019-03-02T04:32:54.786Z,100980.23
2019-03-02T04:35:23.073Z,100986.35
2019-03-02T04:37:51.415Z,100985.03
2019-03-02T04:40:23.442Z,100980.65
2019-03-02T04:42:50.198Z,100984.55
2019-03-02T04:45:40.581Z,100982.51
2019-03-02T04:48:08.838Z,100983.70
2019-03-02T04:50:37.105Z,100985.87
2019-03-02T04:53:05.383Z,100983.33
2019-03-02T04:55:33.700Z,100987.45
2019-03-02T04:58:01.969Z,100990.64
2019-03-02T05:00:32.035Z,100988.94
2019-03-02T05:03:00.238Z,100995.25
2019-03-02T05:05:28.519Z,100995.75
2019-03-02T05:07:56.814Z,101000.45
2019-03-02T05:10:28.604Z,100995.69
2019-03-02T05:12:55.097Z,100996.03
2019-03-02T05:15:23.378Z,100992.56
2019-03-02T05:17:51.658Z,100994.67
2019-03-02T05:20:19.945Z,100993.55
2019-03-02T05:22:50.807Z,100988.69
2019-03-02T05:25:19.060Z,100994.27
2019-03-02T05:27:48.256Z,100991.46
2019-03-02T05:30:17.423Z,100985.44
2019-03-02T05:32:47.687Z,100985.94
2019-03-02T05:35:16.813Z,100983.23
2019-03-02T05:37:45.133Z,100994.30
2019-03-02T05:40:14.155Z,100991.02
2019-03-02T05:42:48.879Z,100990.58
2019-03-02T05:45:13.704Z,101000.06
2019-03-02T05:47:41.980Z,100989.20
2019-03-02T05:50:14.591Z,100990.14
2019-03-02T05:52:42.948Z,100986.80
2019-03-02T05:55:14.205Z,100992.44
2019-03-02T05:57:41.583Z,100988.97
2019-03-02T06:00:18.391Z,100989.12
2019-03-02T06:02:46.719Z,100995.05
2019-03-02T06:05:14.981Z,100999.40
2019-03-02T06:07:43.264Z,101003.69
2019-03-02T06:10:15.090Z,100998.92
2019-03-02T06:12:43.447Z,101002.86
2019-03-02T06:15:13.269Z,101006.71
2019-03-02T06:17:41.536Z,100999.75
2019-03-02T06:20:10.862Z,100993.73
2019-03-02T06:22:39.161Z,100994.67
2019-03-02T06:25:09.221Z,101007.47
2019-03-02T06:27:37.467Z,101004.92
2019-03-02T06:30:09.363Z,101008.67
2019-03-02T06:32:37.696Z,101005.56
2019-03-02T06:35:08.199Z,101001.14
2019-03-02T06:37:36.487Z,101002.05
2019-03-02T06:40:07.117Z,101004.86
2019-03-02T06:42:35.402Z,101001.99
2019-03-02T06:45:08.716Z,101000.42
2019-03-02T06:47:35.510Z,100998.75
2019-03-02T06:50:06.155Z,101003.77
2019-03-02T06:52:34.453Z,101001.77
2019-03-02T06:55:02.745Z,101005.68
2019-03-02T06:57:31.018Z,101004.33
2019-03-02T06:59:59.304Z,101003.88
2019-03-02T07:02:27.587Z,101001.30
2019-03-02T07:04:58.040Z,101006.59
2019-03-02T07:07:25.863Z,101004.30
2019-03-02T07:09:54.143Z,101011.38
2019-03-02T07:12:22.436Z,101007.88
2019-03-02T07:14:51.838Z,101013.22
2019-03-02T07:17:21.893Z,101005.41
2019-03-02T07:19:52.903Z,101009.28
2019-03-02T07:22:21.246Z,101000.45
2019-03-02T07:24:49.519Z,100991.02
2019-03-02T07:27:17.825Z,100991.23
2019-03-02T07:29:46.074Z,100994.97
2019-03-02T07:32:15.582Z,100996.23
2019-03-02T07:34:44.593Z,100993.55
2019-03-02T07:37:12.889Z,100992.72
2019-03-02T07:39:41.165Z,100994.36
2019-03-02T07:42:09.448Z,100994.70
2019-03-02T07:44:37.707Z,100994.98
2019-03-02T07:47:05.971Z,100993.76
2019-03-02T07:49:34.242Z,100992.56
2019-03-02T07:52:02.505Z,100991.55
2019-03-02T07:54:30.779Z,100993.97
2019-03-02T07:56:59.059Z,100991.25
2019-03-02T07:59:29.592Z,100993.94
2019-03-02T08:01:57.328Z,101007.11
2019-03-02T08:04:25.602Z,101003.30
2019-03-02T08:06:53.878Z,101007.94
2019-03-02T08:09:25.744Z,101002.83
2019-03-02T08:11:52.145Z,101003.30
2019-03-02T08:14:20.443Z,100996.56
2019-03-02T08:16:48.724Z,100997.95
2019-03-02T08:19:17.011Z,101001.56
2019-03-02T08:21:45.296Z,101003.50
2019-03-02T08:24:13.569Z,100994.55
2019-03-02T08:26:41.834Z,100996.45
2019-03-02T08:29:10.139Z,101001.29
2019-03-02T08:31:38.422Z,100999.21
2019-03-02T08:34:09.770Z,100991.92
2019-03-02T08:36:36.689Z,100988.39
2019-03-02T08:39:06.905Z,100992.37
2019-03-02T08:41:36.733Z,100987.05
2019-03-02T08:44:05.988Z,100986.80
2019-03-02T08:46:34.252Z,100984.09
2019-03-02T08:49:02.978Z,100981.11
2019-03-02T08:51:32.532Z,100984.81
2019-03-02T08:54:00.786Z,100981.77
2019-03-02T08:56:29.064Z,100983.34
2019-03-02T08:58:57.884Z,100982.61
2019-03-02T09:01:27.314Z,100979.95
2019-03-02T09:03:55.578Z,100983.73
2019-03-02T09:06:23.841Z,100974.97
2019-03-02T09:08:52.131Z,100977.41
2019-03-02T09:11:20.402Z,100987.02
2019-03-02T09:13:48.710Z,100979.33
2019-03-02T09:16:16.978Z,100978.73
2019-03-02T09:18:45.928Z,100980.63
2019-03-02T09:21:14.307Z,100970.50
2019-03-02T09:23:42.591Z,100970.55
2019-03-02T09:26:10.864Z,100968.27
2019-03-02T09:28:39.137Z,100977.41
2019-03-02T09:31:07.392Z,100967.11
2019-03-02T09:33:35.668Z,100970.97
2019-03-02T09:36:03.963Z,100967.62
2019-03-02T09:38:32.278Z,100964.52
2019-03-02T09:41:00.599Z,100955.73
2019-03-02T09:43:28.874Z,100966.63
2019-03-02T09:45:57.155Z,100961.12
2019-03-02T09:48:25.535Z,100964.00
2019-03-02T09:50:53.770Z,100970.06
2019-03-02T09:53:22.031Z,100977.19
2019-03-02T09:55:51.987Z,100978.45
2019-03-02T09:58:24.088Z,100974.89
2019-03-02T10:00:50.283Z,100982.18
2019-03-02T10:03:18.565Z,100975.70
2019-03-02T10:05:49.914Z,100976.23
2019-03-02T10:08:16.911Z,100973.23
2019-03-02T10:10:45.174Z,100978.00
2019-03-02T10:13:13.438Z,100977.22
2019-03-02T10:15:41.714Z,100971.39
2019-03-02T10:18:10.568Z,100974.04
2019-03-02T10:20:42.589Z,100961.89
2019-03-02T10:23:09.984Z,100958.53
2019-03-02T10:25:38.262Z,100955.34
2019-03-02T10:28:06.540Z,100959.06
2019-03-02T10:30:34.826Z,100956.51
2019-03-02T10:33:03.108Z,100954.65
2019-03-02T10:35:31.382Z,100952.37
2019-03-02T10:37:59.657Z,100958.41
2019-03-02T10:40:27.930Z,100959.95
2019-03-02T10:42:56.203Z,100955.70
2019-03-02T10:45:24.475Z,100953.75
2019-03-02T10:47:54.050Z,100953.70
2019-03-02T10:50:29.035Z,100954.14
2019-03-02T10:52:57.306Z,100956.21
2019-03-02T10:55:25.638Z,100951.95
2019-03-02T10:57:53.948Z,100951.39
2019-03-02T11:00:31.424Z,100951.71
2019-03-02T11:03:05.295Z,100945.86
2019-03-02T11:05:52.933Z,100931.92
2019-03-02T11:08:28.588Z,100926.39
2019-03-02T11:11:14.702Z,100922.43
2019-03-02T11:13:59.446Z,100926.36
2019-03-02T11:16:47.783Z,100921.80
2019-03-02T11:19:22.592Z,100925.69
2019-03-02T11:22:10.890Z,100927.75
2019-03-02T11:24:54.414Z,100925.20
2019-03-02T11:27:24.350Z,100925.69
2019-03-02T11:30:10.054Z,100921.80
2019-03-02T11:32:48.961Z,100916.84
2019-03-02T11:35:38.495Z,100907.73
2019-03-02T11:38:10.694Z,100911.87
2019-03-02T11:40:52.035Z,100915.43
2019-03-02T11:43:27.910Z,100903.50
2019-03-02T11:45:57.839Z,100901.58
2019-03-02T11:48:36.428Z,100896.86
2019-03-02T11:51:12.359Z,100896.55
2019-03-02T11:53:58.155Z,100884.97
2019-03-02T11:56:31.094Z,100886.17
2019-03-02T11:59:01.014Z,100881.55
2019-03-02T12:01:36.632Z,100890.95
2019-03-02T12:04:06.626Z,100890.41
2019-03-02T12:06:42.049Z,100880.66
2019-03-02T12:09:21.055Z,100877.75
2019-03-02T12:11:59.747Z,100870.61
2019-03-02T12:14:46.252Z,100874.05
2019-03-02T12:17:23.031Z,100860.22
2019-03-02T12:19:52.960Z,100863.31
2019-03-02T12:22:40.988Z,100866.31
2019-03-02T12:25:31.153Z,100862.64
2019-03-02T12:28:16.465Z,100873.08
2019-03-02T12:30:52.323Z,100858.48
2019-03-02T12:33:34.285Z,100858.48
2019-03-02T12:36:12.560Z,100850.77
2019-03-02T12:38:49.019Z,100848.17
2019-03-02T12:41:34.965Z,100840.98
2019-03-02T12:44:21.245Z,100834.91
2019-03-02T12:46:59.425Z,100830.58
2019-03-02T12:49:28.492Z,100820.98
2019-03-02T12:52:12.257Z,100829.28
2019-03-02T12:54:48.051Z,100835.89
2019-03-02T12:57:32.546Z,100823.97
2019-03-02T13:00:14.200Z,100821.77
2019-03-02T13:02:59.758Z,100818.37
2019-03-02T13:05:32.629Z,100815.85
2019-03-02T13:08:14.768Z,100816.64
2019-03-02T13:10:49.212Z,100819.90
2019-03-02T13:13:21.422Z,100815.70
2019-03-02T13:16:06.827Z,100801.23
2019-03-02T13:18:36.735Z,100802.30
2019-03-02T13:21:15.336Z,100804.62
2019-03-02T13:23:55.703Z,100813.26
2019-03-02T13:26:25.613Z,100814.68
2019-03-02T13:29:01.304Z,100799.79
2019-03-02T13:31:46.343Z,100795.63
2019-03-02T13:34:21.906Z,100802.56
2019-03-02T13:36:51.805Z,100803.09
2019-03-02T13:39:37.734Z,100799.03
2019-03-02T13:42:07.654Z,100796.58
2019-03-02T13:44:42.464Z,100791.55
2019-03-02T13:47:12.205Z,100793.44
2019-03-02T13:49:42.128Z,100789.87
2019-03-02T13:52:23.996Z,100798.91
2019-03-02T13:55:09.977Z,100794.05
2019-03-02T13:57:46.009Z,100787.67
2019-03-02T14:00:18.596Z,100785.67
2019-03-02T14:02:48.532Z,100788.97
2019-03-02T14:05:18.442Z,100785.97
2019-03-02T14:08:07.392Z,100788.45
2019-03-02T14:10:36.240Z,100784.27
2019-03-02T14:13:06.166Z,100777.38
2019-03-02T14:15:45.048Z,100772.84
2019-03-02T14:18:24.376Z,100774.23
2019-03-02T14:20:52.319Z,100766.09
2019-03-02T14:23:32.216Z,100762.47
2019-03-02T14:26:02.602Z,100757.60
2019-03-02T14:28:44.267Z,100752.13
2019-03-02T14:31:20.083Z,100751.45
2019-03-02T14:33:45.825Z,100750.24
2019-03-02T14:36:18.617Z,100745.44
2019-03-02T14:38:51.215Z,100753.80
2019-03-02T14:41:32.888Z,100754.42
2019-03-02T14:44:05.734Z,100752.58
2019-03-02T14:46:38.342Z,100751.39
2019-03-02T14:49:24.358Z,100740.14
2019-03-02T14:51:58.286Z,100744.02
2019-03-02T14:54:43.362Z,100747.02
2019-03-02T14:57:13.297Z,100751.20
2019-03-02T14:59:43.221Z,100745.14
2019-03-02T15:02:21.594Z,100747.50
2019-03-02T15:05:06.556Z,100738.55
2019-03-02T15:07:55.433Z,100736.41
2019-03-02T15:10:40.657Z,100730.39
2019-03-02T15:13:10.577Z,100726.81
2019-03-02T15:15:40.484Z,100732.92
2019-03-02T15:18:13.045Z,100722.22
2019-03-02T15:20:45.921Z,100731.38
2019-03-02T15:23:35.131Z,100735.13
2019-03-02T15:26:11.317Z,100727.33
2019-03-02T15:28:50.377Z,100723.94
2019-03-02T15:31:20.300Z,100731.87
2019-03-02T15:34:06.164Z,100733.56
2019-03-02T15:36:38.485Z,100733.69
2019-03-02T15:39:08.773Z,100731.47
2019-03-02T15:41:42.104Z,100731.98
2019-03-02T15:44:18.608Z,100720.44
2019-03-02T15:46:48.549Z,100722.00
2019-03-02T15:49:18.454Z,100713.93
2019-03-02T15:51:49.507Z,100710.16
2019-03-02T15:54:35.344Z,100717.38
2019-03-02T15:57:21.511Z,100711.24
2019-03-02T16:00:03.493Z,100712.55
2019-03-02T16:02:38.267Z,100708.58
2019-03-02T16:05:25.921Z,100704.23
2019-03-02T16:08:10.646Z,100701.37
2019-03-02T16:10:40.202Z,100699.89
2019-03-02T16:13:20.672Z,100702.23
2019-03-02T16:15:51.129Z,100699.02
2019-03-02T16:18:29.836Z,100691.43
2019-03-02T16:21:08.496Z,100691.16
2019-03-02T16:23:38.402Z,100693.91
2019-03-02T16:26:08.315Z,100700.16
2019-03-02T16:28:46.962Z,100687.73
2019-03-02T16:31:32.742Z,100694.75
2019-03-02T16:34:04.319Z,100694.75
2019-03-02T16:36:50.258Z,100683.09
2019-03-02T16:39:32.164Z,100684.91
2019-03-02T16:42:07.082Z,100688.03
2019-03-02T16:44:39.350Z,100694.16
2019-03-02T16:47:24.537Z,100684.09
2019-03-02T16:50:03.508Z,100684.09
2019-03-02T16:52:33.493Z,100684.39
2019-03-02T16:55:19.414Z,100665.89
2019-03-02T16:58:01.251Z,100655.34
2019-03-02T17:00:33.913Z,100639.36
2019-03-02T17:03:16.587Z,100652.04
2019-03-02T17:05:52.376Z,100652.82
2019-03-02T17:08:25.240Z,100663.00
2019-03-02T17:11:03.872Z,100663.00
2019-03-02T17:13:33.819Z,100665.35
2019-03-02T17:16:06.366Z,100670.82
2019-03-02T17:18:36.287Z,100665.48
2019-03-02T17:21:21.624Z,100656.78
2019-03-02T17:24:00.320Z,100654.25
2019-03-02T17:26:46.968Z,100662.36
2019-03-02T17:29:28.999Z,100660.30
2019-03-02T17:32:14.035Z,100657.34
2019-03-02T17:34:45.094Z,100646.30
2019-03-02T17:37:30.257Z,100651.44
2019-03-02T17:40:11.852Z,100644.34
2019-03-02T17:42:41.764Z,100639.53
2019-03-02T17:45:14.409Z,100630.16
2019-03-02T17:47:44.329Z,100635.30
2019-03-02T17:50:32.089Z,100631.67
2019-03-02T17:53:02.016Z,100640.31
2019-03-02T17:55:47.872Z,100638.56
2019-03-02T17:58:17.783Z,100641.05
2019-03-02T18:01:03.817Z,100645.25
2019-03-02T18:03:39.178Z,100653.11
2019-03-02T18:06:09.660Z,100649.00
2019-03-02T18:08:39.747Z,100655.62
2019-03-02T18:11:15.418Z,100659.30
2019-03-02T18:13:57.308Z,100650.76
2019-03-02T18:16:27.216Z,100656.86
2019-03-02T18:18:55.489Z,100647.43
2019-03-02T18:21:23.771Z,100651.99
2019-03-02T18:23:52.033Z,100656.98
2019-03-02T18:26:20.740Z,100652.56
2019-03-02T18:28:54.112Z,100655.34
2019-03-02T18:31:21.734Z,100643.20
2019-03-02T18:33:52.293Z,100640.09
2019-03-02T18:36:20.572Z,100636.42
2019-03-02T18:38:50.240Z,100640.08
2019-03-02T18:41:18.528Z,100636.26
2019-03-02T18:43:46.820Z,100640.95
2019-03-02T18:46:16.440Z,100639.08
2019-03-02T18:48:52.621Z,100636.98
2019-03-02T18:51:40.941Z,100635.62
2019-03-02T18:54:13.262Z,100628.13
2019-03-02T18:56:43.177Z,100625.75
2019-03-02T18:59:11.453Z,100621.91
2019-03-02T19:01:40.166Z,100617.34
2019-03-02T19:04:08.528Z,100620.05
2019-03-02T19:06:36.805Z,100622.52
2019-03-02T19:09:07.610Z,100618.64
2019-03-02T19:11:35.887Z,100612.30
2019-03-02T19:14:04.416Z,100613.94
2019-03-02T19:16:32.690Z,100606.21
2019-03-02T19:19:00.981Z,100607.29
2019-03-02T19:21:29.267Z,100597.17
2019-03-02T19:23:57.552Z,100603.49
2019-03-02T19:26:26.419Z,100597.84
2019-03-02T19:28:54.778Z,100598.18
2019-03-02T19:31:23.073Z,100603.16
2019-03-02T19:33:51.383Z,100602.44
2019-03-02T19:36:19.654Z,100596.16
2019-03-02T19:38:47.938Z,100594.01
2019-03-02T19:41:16.217Z,100581.47
2019-03-02T19:43:45.151Z,100576.00
2019-03-02T19:46:13.433Z,100568.81
2019-03-02T19:48:41.726Z,100554.46
2019-03-02T19:51:10.017Z,100548.97
2019-03-02T19:53:38.298Z,100541.96
2019-03-02T19:56:08.268Z,100533.47
2019-03-02T19:58:36.667Z,100532.63
2019-03-02T20:01:05.133Z,100532.63
2019-03-02T20:03:33.416Z,100529.42
2019-03-02T20:06:01.701Z,100528.19
2019-03-02T20:08:29.983Z,100524.17
2019-03-02T20:10:58.359Z,100518.01
2019-03-02T20:13:26.632Z,100521.39
2019-03-02T20:15:54.920Z,100515.42
2019-03-02T20:18:23.206Z,100507.56
2019-03-02T20:20:51.503Z,100511.64
2019-03-02T20:23:19.783Z,100510.02
2019-03-02T20:25:48.084Z,100515.98
2019-03-02T20:28:16.365Z,100505.21
2019-03-02T20:30:44.647Z,100508.59
2019-03-02T20:33:12.948Z,100496.45
2019-03-02T20:35:41.250Z,100495.81
2019-03-02T20:38:09.547Z,100488.27
2019-03-02T20:40:37.836Z,100481.84
2019-03-02T20:43:06.136Z,100472.09
2019-03-02T20:45:34.414Z,100477.86
2019-03-02T20:48:02.701Z,100478.13
2019-03-02T20:50:30.982Z,100473.66
2019-03-02T20:52:59.256Z,100474.48
2019-03-02T20:55:27.550Z,100473.23
2019-03-02T20:57:55.820Z,100468.34
2019-03-02T21:00:26.923Z,100469.81
2019-03-02T21:02:56.455Z,100468.91
2019-03-02T21:05:25.581Z,100470.42
2019-03-02T21:07:54.116Z,100458.75
2019-03-02T21:10:26.613Z,100450.68
2019-03-02T21:12:54.898Z,100448.03
2019-03-02T21:15:38.005Z,100441.52
2019-03-02T21:18:06.634Z,100439.05
2019-03-02T21:20:36.595Z,100437.23
2019-03-02T21:23:05.270Z,100432.95
2019-03-02T21:25:33.546Z,100424.59
2019-03-02T21:28:01.838Z,100416.21
2019-03-02T21:30:30.112Z,100405.38
2019-03-02T21:32:58.426Z,100398.66
2019-03-02T21:35:26.698Z,100401.15
2019-03-02T21:37:54.977Z,100401.64
2019-03-02T21:40:26.269Z,100392.56
2019-03-02T21:42:55.155Z,100391.39
2019-03-02T21:45:25.155Z,100387.10
2019-03-02T21:47:54.174Z,100379.05
2019-03-02T21:50:27.438Z,100381.30
2019-03-02T21:52:55.713Z,100388.00
2019-03-02T21:55:23.990Z,100381.59
2019-03-02T21:57:52.272Z,100376.61
2019-03-02T22:00:26.684Z,100373.98
2019-03-02T22:02:54.955Z,100362.52
2019-03-02T22:05:23.256Z,100368.87
2019-03-02T22:07:51.609Z,100364.53
2019-03-02T22:10:23.059Z,100357.92
2019-03-02T22:12:51.352Z,100351.25
2019-03-02T22:15:19.638Z,100347.53
2019-03-02T22:17:49.563Z,100347.53
2019-03-02T22:20:17.846Z,100342.55
2019-03-02T22:22:46.121Z,100333.16
2019-03-02T22:25:16.761Z,100343.16
2019-03-02T22:27:45.036Z,100342.58
2019-03-02T22:30:19.418Z,100335.11
2019-03-02T22:32:47.709Z,100329.88
2019-03-02T22:35:16.006Z,100322.09
2019-03-02T22:37:44.301Z,100326.63
2019-03-02T22:40:15.091Z,100322.22
2019-03-02T22:42:43.391Z,100311.95
2019-03-02T22:45:13.611Z,100301.87
2019-03-02T22:47:41.886Z,100290.93
2019-03-02T22:50:12.980Z,100288.59
2019-03-02T22:52:41.260Z,100287.99
2019-03-02T22:55:11.920Z,100283.57
2019-03-02T22:57:40.209Z,100288.45
2019-03-02T23:00:30.189Z,100289.55
2019-03-02T23:02:57.457Z,100294.92
2019-03-02T23:05:25.803Z,100292.54
2019-03-02T23:07:54.071Z,100285.27
2019-03-02T23:10:22.413Z,100285.84
2019-03-02T23:12:50.636Z,100278.81
2019-03-02T23:15:26.413Z,100277.23
2019-03-02T23:17:54.696Z,100283.41
2019-03-02T23:20:23.049Z,100278.14
2019-03-02T23:22:51.343Z,100280.22
2019-03-02T23:25:19.637Z,100270.27
2019-03-02T23:27:47.912Z,100271.75
2019-03-02T23:30:17.130Z,100269.43
2019-03-02T23:32:45.398Z,100269.05
2019-03-02T23:35:13.859Z,100266.73
2019-03-02T23:37:42.221Z,100263.73
2019-03-02T23:40:17.737Z,100262.12
2019-03-02T23:42:46.079Z,100256.15
2019-03-02T23:45:16.527Z,100251.27
2019-03-02T23:47:44.806Z,100254.92
2019-03-02T23:50:13.712Z,100247.37
2019-03-02T23:52:41.917Z,100236.13
2019-03-02T23:55:11.446Z,100231.39
2019-03-02T23:57:39.745Z,100223.21
